aviador You're here:

KPNC Decoded Metar

PONCA CITY in OK, USA
Report Time2017-10-21 14:53:00
UTC Time2017-10-21 15:52:59
Flight Rules mvfr MVFR
Wind170° at 18 Gusting to 28 kt
W.Decomp.*RWY 17: 17.9 kt HW 1.6 kt LCW
W.Rank170° ranks 1
Current wind is above 170° avg. (9.2)
Visibility9999 m
Phenomena:N/A
Clouds:Broken 016 Hf
Overcast 022 Hf
Expected CloudBase > 2,000 ft AGL from Temp-Dew spread
Ceiling1,600 ft
Temp22°C (ISA +9)
Dew Point17°C (73% RH)
AAT17.9°C
QNH1009 hPa
Density Alt2,454 ft
Elevation1,010 ft
Report Wrong Elevation
Raw Report
KPNC 211453Z AUTO 17018G28KT 10SM BKN016 OVC022 22/17 A2981 RMK
AO2 PK WND 16029/1358 SLP083 T02170172 53005=

Extra information for KPNC:More info

Metar Taf Metar & Taf Last 4 Metars F.Rules Stats Wind Profile Meteogram Temp Stats Airport Information Weather charts Add Link Nearby VenuesMetar ALERT Operation Metar Decoded Social comments

AIRNAV info for KPNC